Time;durP1;ratioP1;P1;durP2;ratioP2;P2;SDS_P1;SDS_P2;PMS_P1;PMS_P2;Temp;Humidity;BMP_temperature;BMP_pressure;BME280_temperature;BME280_humidity;BME280_pressure;Samples;Min_cycle;Max_cycle;Signal;HPM_P1;HPM_P2
2022/01/25 00:10:15;;;;;;;67.55;49.05;;;7.70;99.90;;;8.00;65.94;103375.09;5108985;28;20154;-61
2022/01/25 00:26:48;;;;;;;68.70;49.35;;;7.70;99.90;;;7.95;66.02;103389.81;5099858;28;20469;-61
2022/01/25 00:29:29;;;;;;;67.78;47.55;;;7.70;99.90;;;7.50;66.12;103303.34;5108665;28;20043;-61
2022/01/25 00:31:58;;;;;;;68.30;48.58;;;7.70;99.90;;;8.00;65.87;103377.72;5109073;28;20103;-61
2022/01/25 00:34:27;;;;;;;66.80;49.63;;;7.80;99.90;;;7.95;65.92;103374.91;5108911;28;20043;-61
2022/01/25 00:36:55;;;;;;;66.38;48.90;;;7.70;99.90;;;7.96;65.85;103374.06;5090565;28;20039;-61
2022/01/25 00:39:24;;;;;;;64.28;48.47;;;7.70;99.90;;;7.95;66.24;103385.44;5108340;28;20036;-61
2022/01/25 00:41:52;;;;;;;69.65;48.92;;;7.70;99.90;;;7.97;66.22;103374.97;5108434;28;20131;-61
2022/01/25 00:44:20;;;;;;;67.30;49.10;;;7.70;99.90;;;7.99;66.09;103368.03;5108157;28;20040;-61
2022/01/25 00:46:49;;;;;;;74.97;50.58;;;7.80;99.90;;;7.94;66.10;103364.25;5108157;28;20042;-61
2022/01/25 00:49:24;;;;;;;69.95;50.00;;;7.70;99.90;;;7.86;66.05;103347.19;5108669;28;20054;-61
2022/01/25 00:52:07;;;;;;;66.82;50.63;;;7.70;99.90;;;7.93;65.67;103360.75;5108644;28;20174;-61
2022/01/25 00:54:40;;;;;;;69.47;51.08;;;7.70;99.90;;;7.93;66.07;103350.22;5097893;28;20048;-61
2022/01/25 00:57:09;;;;;;;69.32;49.58;;;7.70;99.90;;;7.95;66.00;103356.44;5094380;28;20048;-61
2022/01/25 00:59:37;;;;;;;66.05;49.25;;;7.70;99.90;;;7.99;66.01;103358.38;5094874;28;20036;-61
2022/01/25 01:02:09;;;;;;;70.00;50.78;;;7.70;99.90;;;8.04;65.98;103362.13;5076109;28;20481;-61
2022/01/25 01:04:42;;;;;;;67.78;50.03;;;7.80;99.90;;;8.02;65.95;103353.25;5094514;28;20064;-61
2022/01/25 01:07:14;;;;;;;70.38;50.63;;;7.70;99.90;;;8.01;65.84;103354.06;5094395;28;20051;-63
2022/01/25 01:09:47;;;;;;;68.80;51.65;;;7.80;99.90;;;8.02;65.31;103355.88;5094740;28;20040;-63
2022/01/25 01:12:32;;;;;;;71.90;51.80;;;7.80;99.90;;;8.00;65.64;103344.38;5076072;28;20436;-63
2022/01/25 01:15:08;;;;;;;68.60;51.15;;;7.80;99.90;;;7.87;65.75;103315.66;5094100;28;20123;-63
2022/01/25 01:31:48;;;;;;;73.10;51.97;;;7.80;99.90;;;7.99;66.12;103355.72;5115858;28;20109;-63
2022/01/25 01:40:13;;;;;;;72.43;52.38;;;7.70;99.90;;;8.00;65.90;103360.19;5120484;28;20083;-64
2022/01/25 01:45:43;;;;;;;74.20;53.83;;;7.70;99.90;;;7.97;65.88;103349.53;5121346;28;20051;-63
2022/01/25 01:48:25;;;;;;;75.97;52.45;;;7.70;99.90;;;7.65;65.80;103291.78;5129666;28;20047;-63
2022/01/25 01:50:54;;;;;;;74.32;53.42;;;7.70;99.90;;;7.95;65.94;103345.91;5129423;28;20061;-64
2022/01/25 01:53:24;;;;;;;78.28;55.05;;;7.70;99.90;;;7.96;65.74;103339.78;5129244;28;20047;-63
2022/01/25 01:55:52;;;;;;;78.40;56.65;;;7.70;99.90;;;8.00;65.51;103340.81;5129870;28;20116;-63
2022/01/25 01:58:21;;;;;;;78.10;55.28;;;7.80;99.90;;;7.98;65.62;103332.84;5129726;28;20032;-65
2022/01/25 02:00:51;;;;;;;83.38;56.03;;;7.70;99.90;;;7.98;66.28;103337.22;5129092;28;20055;-64
2022/01/25 02:03:20;;;;;;;76.40;54.78;;;7.70;99.90;;;7.94;65.83;103344.09;5129576;28;20138;-64
2022/01/25 02:05:48;;;;;;;82.50;56.05;;;7.70;99.90;;;7.96;65.98;103338.88;5129273;28;20039;-67
2022/01/25 02:08:17;;;;;;;75.57;53.55;;;7.70;99.90;;;7.98;65.82;103345.13;5111101;28;20115;-65
2022/01/25 02:10:46;;;;;;;76.18;54.38;;;7.80;99.90;;;7.95;65.87;103345.91;5129283;28;20039;-65
2022/01/25 02:13:15;;;;;;;83.70;56.17;;;7.70;99.90;;;7.96;65.80;103339.78;5110770;28;20047;-64
2022/01/25 02:15:46;;;;;;;80.75;56.05;;;7.70;99.90;;;7.96;65.91;103338.88;5129288;28;20749;-65
2022/01/25 02:23:50;;;;;;;82.43;58.45;;;7.70;99.90;;;7.89;66.25;103323.63;5128744;28;20088;-64
2022/01/25 02:26:19;;;;;;;81.28;57.35;;;7.70;99.90;;;7.89;66.22;103326.28;5128601;28;20124;-63
2022/01/25 02:28:47;;;;;;;83.55;58.65;;;7.70;99.90;;;7.92;66.41;103344.84;5128469;28;20096;-63
2022/01/25 02:31:17;;;;;;;84.78;59.13;;;7.70;99.90;;;7.93;66.29;103323.84;5118380;28;20069;-64
2022/01/25 02:33:47;;;;;;;82.05;58.17;;;7.70;99.90;;;7.43;66.42;103307.44;5115144;28;20345;-64
2022/01/25 02:36:25;;;;;;;84.00;57.10;;;7.70;99.90;;;7.91;66.08;103319.34;5114747;28;20413;-63
2022/01/25 02:38:54;;;;;;;84.97;57.63;;;7.70;99.90;;;7.90;66.24;103321.06;5114659;28;20044;-63
2022/01/25 02:41:23;;;;;;;81.32;57.03;;;7.70;99.90;;;7.30;66.54;103208.53;5114613;28;20123;-64
2022/01/25 02:43:53;;;;;;;80.97;56.90;;;7.70;99.90;;;7.89;66.52;103314.00;5114601;28;20048;-64
2022/01/25 02:49:09;;;;;;;83.03;57.90;;;7.70;99.90;;;7.89;66.81;103311.38;5113857;28;20066;-63
2022/01/25 02:51:43;;;;;;;85.85;59.00;;;7.70;99.90;;;7.94;66.52;103307.19;5114667;28;20043;-64
2022/01/25 02:54:13;;;;;;;84.30;57.42;;;7.70;99.90;;;7.91;66.26;103314.06;5114720;28;20159;-64
2022/01/25 02:56:45;;;;;;;86.65;58.88;;;7.70;99.90;;;7.92;66.07;103314.13;5114971;28;20054;-64
2022/01/25 02:59:16;;;;;;;85.18;58.97;;;7.70;99.90;;;7.92;66.41;103319.41;5096201;28;20426;-64
2022/01/25 03:01:46;;;;;;;84.50;59.05;;;7.70;99.90;;;7.94;66.63;103317.72;5096151;28;20538;-61
2022/01/25 03:04:18;;;;;;;86.90;58.92;;;7.70;99.90;;;7.87;66.44;103339.38;5114282;28;20043;-61
2022/01/25 03:06:48;;;;;;;86.20;59.10;;;7.70;99.90;;;7.91;66.41;103332.50;5114243;28;20085;-61
2022/01/25 03:09:17;;;;;;;87.78;59.55;;;7.70;99.90;;;7.89;66.79;103323.63;5114523;28;20122;-61
2022/01/25 03:11:48;;;;;;;85.65;60.95;;;7.70;99.90;;;7.89;66.82;103332.44;5114325;28;20162;-61
2022/01/25 03:14:19;;;;;;;88.03;57.92;;;7.70;99.90;;;7.93;66.94;103344.94;5114438;28;20047;-61
2022/01/25 03:17:04;;;;;;;85.88;57.85;;;7.70;99.90;;;7.91;66.68;103330.78;5114210;28;20043;-61
2022/01/25 03:19:49;;;;;;;89.63;60.25;;;7.70;99.90;;;7.91;66.80;103338.69;5114284;28;20136;-61
2022/01/25 03:22:33;;;;;;;86.28;58.40;;;7.70;99.90;;;7.92;66.61;103343.13;5114409;28;20047;-60
2022/01/25 03:25:02;;;;;;;88.28;59.17;;;7.70;99.90;;;7.93;66.82;103334.41;5114121;28;20039;-60
2022/01/25 03:27:30;;;;;;;85.85;58.88;;;7.70;99.90;;;7.95;66.59;103327.47;5113817;28;20074;-61
2022/01/25 03:29:58;;;;;;;88.60;61.10;;;7.70;99.90;;;7.94;66.48;103317.72;5114016;28;20072;-61
2022/01/25 03:32:27;;;;;;;91.55;62.25;;;7.80;99.90;;;7.96;66.86;103328.34;5113941;28;20439;-61
2022/01/25 03:34:55;;;;;;;86.90;59.75;;;7.70;99.90;;;7.95;66.84;103319.56;5113608;28;20401;-61
2022/01/25 03:37:25;;;;;;;88.30;59.63;;;7.80;99.90;;;7.97;66.35;103310.00;5113875;28;20378;-61
2022/01/25 03:39:53;;;;;;;90.83;61.57;;;7.80;99.90;;;8.02;66.81;103312.81;5113529;28;20086;-61
2022/01/25 03:42:23;;;;;;;87.60;60.50;;;7.80;99.90;;;8.03;66.59;103320.78;5112424;28;20692;-60
2022/01/25 03:44:51;;;;;;;88.45;61.78;;;7.80;99.90;;;7.91;66.58;103291.25;5113719;28;20051;-61
2022/01/25 03:47:30;;;;;;;91.38;61.40;;;7.80;99.90;;;8.02;66.48;103302.25;5113285;28;20082;-60
2022/01/25 03:49:57;;;;;;;85.97;58.72;;;7.80;99.90;;;7.97;66.65;103307.34;5113293;28;20439;-61
2022/01/25 03:52:31;;;;;;;90.07;61.42;;;7.70;99.90;;;7.98;66.38;103311.78;5113527;28;20454;-61
2022/01/25 03:55:00;;;;;;;91.22;59.88;;;7.70;99.90;;;7.97;66.72;103314.34;5113167;28;20100;-60
2022/01/25 03:57:28;;;;;;;86.80;58.85;;;7.70;99.90;;;7.98;66.54;103314.41;5113127;28;20345;-61
2022/01/25 03:59:59;;;;;;;89.30;61.25;;;7.80;99.90;;;7.99;66.72;103308.28;5112883;28;20043;-61
2022/01/25 04:02:30;;;;;;;;;;;7.80;99.90;;;7.98;66.61;103311.78;5113410;28;20073;-61
2022/01/25 04:05:00;;;;;;;88.45;58.60;;;7.80;99.90;;;8.01;66.77;103330.34;5112935;28;20284;-61
2022/01/25 04:07:43;;;;;;;89.38;60.20;;;7.80;99.90;;;7.99;66.79;103310.03;5113085;28;20051;-61
2022/01/25 04:10:13;;;;;;;94.88;61.17;;;7.80;99.90;;;7.92;66.99;103310.59;5112950;28;20059;-60
2022/01/25 04:12:41;;;;;;;88.13;59.70;;;7.80;99.90;;;8.04;66.48;103313.78;5113053;28;20080;-61
2022/01/25 04:15:10;;;;;;;90.85;61.03;;;7.80;99.90;;;8.03;66.67;103304.97;5112715;28;20078;-61
2022/01/25 04:17:40;;;;;;;92.85;61.20;;;7.80;99.90;;;8.04;66.67;103309.41;5112943;28;20043;-61
2022/01/25 04:20:16;;;;;;;91.47;61.90;;;7.80;99.90;;;8.03;66.43;103306.72;5112641;28;20104;-61
2022/01/25 04:25:31;;;;;;;92.75;60.47;;;7.80;99.90;;;7.86;66.81;103295.41;5112627;28;20458;-61
2022/01/25 04:28:00;;;;;;;94.00;62.42;;;7.70;99.90;;;7.89;66.96;103279.75;5112521;28;20131;-61
2022/01/25 04:30:29;;;;;;;95.20;62.42;;;7.70;99.90;;;7.94;66.82;103275.56;5112475;28;20481;-61
2022/01/25 04:33:00;;;;;;;97.10;62.72;;;7.70;99.90;;;7.94;66.94;103279.94;5112645;28;20127;-61
2022/01/25 04:35:55;;;;;;;95.53;62.13;;;7.70;99.90;;;7.93;67.00;103278.16;5112366;28;20488;-61
2022/01/25 04:49:31;;;;;;;95.55;63.80;;;7.70;99.90;;;7.89;67.12;103290.28;5112383;28;20075;-61
2022/01/25 04:52:03;;;;;;;102.50;64.00;;;7.70;99.90;;;7.87;66.98;103291.94;5112352;28;20474;-61
2022/01/25 04:54:46;;;;;;;94.70;62.90;;;7.70;99.90;;;7.84;66.99;103285.66;5112019;28;20447;-61
2022/01/25 04:57:31;;;;;;;100.82;62.28;;;7.70;99.90;;;7.75;67.11;103282.56;5112236;28;20427;-61
2022/01/25 05:00:04;;;;;;;98.35;65.03;;;7.60;99.90;;;7.20;67.40;103168.56;5112505;28;20447;-61
2022/01/25 05:02:46;;;;;;;98.78;64.32;;;7.60;99.90;;;7.83;67.56;103276.84;5112351;28;20040;-62
2022/01/25 05:05:26;;;;;;;100.22;62.08;;;7.60;99.90;;;7.17;67.07;103156.16;5112803;28;20062;-61
2022/01/25 05:08:00;;;;;;;96.82;63.05;;;7.70;99.90;;;7.83;67.55;103274.19;5112178;28;20070;-61
2022/01/25 05:10:34;;;;;;;101.88;63.03;;;7.70;99.90;;;7.87;67.27;103277.88;5111987;28;20040;-62
2022/01/25 05:13:16;;;;;;;100.40;63.03;;;7.70;99.90;;;7.67;67.28;103273.41;5112178;28;20413;-63
2022/01/25 05:16:04;;;;;;;105.55;63.08;;;7.60;99.90;;;7.60;66.84;103269.63;5111876;28;20051;-63
2022/01/25 05:18:43;;;;;;;100.88;63.13;;;7.50;99.90;;;7.14;68.59;103266.53;5111880;28;20475;-63
2022/01/25 05:23:58;;;;;;;104.80;63.28;;;7.10;99.90;;;6.87;70.03;103256.44;5111655;28;20071;-62
2022/01/25 05:26:28;;;;;;;106.20;65.07;;;6.80;99.90;;;6.81;69.71;103240.34;5112142;28;20461;-63
2022/01/25 05:28:59;;;;;;;108.78;65.70;;;6.80;99.90;;;6.95;69.82;103260.34;5112213;28;20039;-63
2022/01/25 05:31:28;;;;;;;105.65;65.03;;;6.80;99.90;;;6.91;70.24;103263.66;5111604;28;20082;-63
2022/01/25 05:33:56;;;;;;;106.88;66.22;;;6.80;99.90;;;6.89;70.27;103267.94;5112107;28;20051;-63
2022/01/25 05:36:26;;;;;;;107.47;64.90;;;6.80;99.90;;;7.00;69.94;103269.34;5111547;28;20047;-62
2022/01/25 05:38:57;;;;;;;109.35;66.38;;;6.90;99.90;;;7.09;69.52;103254.00;5111838;28;20048;-62
2022/01/25 05:41:30;;;;;;;107.95;66.90;;;7.00;99.90;;;7.35;69.60;103276.28;5111504;28;20043;-63
2022/01/25 05:46:53;;;;;;;106.60;66.75;;;7.10;99.90;;;7.10;69.31;103284.75;5105006;28;20051;-62
2022/01/25 05:49:22;;;;;;;108.90;67.97;;;7.00;99.90;;;7.27;68.95;103273.31;5111543;28;20051;-62
2022/01/25 05:51:51;;;;;;;108.90;67.47;;;7.10;99.90;;;7.19;69.43;103277.28;5111499;28;20114;-62
2022/01/25 05:54:19;;;;;;;111.32;69.13;;;7.00;99.90;;;7.14;69.65;103279.69;5111481;28;20104;-63
2022/01/25 05:56:51;;;;;;;110.63;67.03;;;7.00;99.90;;;7.07;69.46;103279.31;5111506;28;20059;-62
2022/01/25 05:59:19;;;;;;;110.55;66.68;;;7.00;99.90;;;6.94;69.84;103271.66;5111421;28;20051;-63
2022/01/25 06:01:48;;;;;;;110.87;67.50;;;6.90;99.90;;;7.04;69.72;103258.16;5111575;28;20068;-63
2022/01/25 06:04:21;;;;;;;107.53;65.53;;;7.00;99.90;;;7.29;69.64;103283.09;5111462;28;20408;-62
2022/01/25 06:06:50;;;;;;;104.50;64.45;;;7.10;99.90;;;7.41;69.53;103269.59;5114439;28;20047;-62
2022/01/25 06:09:19;;;;;;;108.88;65.90;;;7.20;99.90;;;7.43;69.38;103281.09;5115177;28;20572;-62
2022/01/25 06:11:47;;;;;;;103.65;64.50;;;7.30;99.90;;;6.82;70.74;103271.06;5115113;28;20050;-63
2022/01/25 06:14:17;;;;;;;110.05;67.85;;;6.80;99.90;;;6.89;70.98;103278.44;5115044;28;20122;-63
2022/01/25 06:16:45;;;;;;;108.10;65.13;;;6.70;99.90;;;7.09;70.03;103283.84;5115074;28;20096;-63
2022/01/25 06:19:14;;;;;;;107.50;65.57;;;6.90;99.90;;;7.10;69.87;103283.00;5114722;28;20058;-62
2022/01/25 06:21:42;;;;;;;111.82;67.32;;;6.90;99.90;;;7.25;69.54;103288.13;5115234;28;20039;-62
2022/01/25 06:24:11;;;;;;;109.20;66.07;;;7.00;99.90;;;7.06;68.93;103277.53;5114970;28;20139;-63
2022/01/25 06:26:39;;;;;;;107.15;66.85;;;7.00;99.90;;;6.42;69.72;103225.22;5115218;28;20043;-63
2022/01/25 06:29:07;;;;;;;107.90;66.80;;;6.70;99.90;;;7.06;69.86;103283.72;5115542;28;20054;-63
2022/01/25 06:31:37;;;;;;;107.68;66.53;;;6.80;99.90;;;7.18;69.18;103292.16;5115037;28;20053;-63
2022/01/25 06:34:05;;;;;;;113.47;68.18;;;7.00;99.90;;;7.01;69.20;103284.28;5115206;28;20101;-62
2022/01/25 06:36:34;;;;;;;109.35;66.80;;;6.90;99.90;;;7.14;69.17;103284.09;5114888;28;20039;-63
2022/01/25 06:39:03;;;;;;;111.80;67.57;;;7.00;99.90;;;7.29;69.04;103297.97;5114677;28;20058;-63
2022/01/25 06:41:33;;;;;;;110.70;67.45;;;7.10;99.90;;;7.35;68.80;103298.25;5114431;28;20538;-62
2022/01/25 06:44:01;;;;;;;104.85;64.00;;;7.10;99.90;;;7.37;68.40;103296.59;5114530;28;20059;-62
2022/01/25 06:46:30;;;;;;;103.72;63.28;;;7.20;99.90;;;7.27;68.29;103297.00;5114407;28;20495;-62
2022/01/25 06:49:00;;;;;;;105.22;65.20;;;7.10;99.90;;;7.31;68.47;103291.03;5114375;28;20054;-62
2022/01/25 06:51:29;;;;;;;106.50;65.93;;;7.30;99.90;;;7.30;68.25;103268.16;5114459;28;20052;-62
2022/01/25 06:53:57;;;;;;;107.32;66.03;;;7.30;99.90;;;7.48;68.12;103299.72;5095954;28;20119;-62
2022/01/25 06:56:26;;;;;;;111.45;68.05;;;7.30;99.90;;;7.55;67.42;103304.47;5114156;28;20514;-63
2022/01/25 06:58:54;;;;;;;104.40;64.68;;;7.40;99.90;;;7.10;67.18;103247.91;5114208;28;20052;-63
2022/01/25 07:01:23;;;;;;;109.72;66.85;;;7.30;99.90;;;7.53;67.08;103304.38;5114030;28;20055;-63
2022/01/25 07:03:51;;;;;;;107.20;66.20;;;7.30;99.90;;;7.56;66.93;103309.81;5113979;28;20044;-63
2022/01/25 07:06:21;;;;;;;105.22;66.30;;;7.40;99.90;;;7.57;67.05;103301.06;5095995;28;20051;-63
2022/01/25 07:08:50;;;;;;;103.40;64.15;;;7.40;99.90;;;7.65;66.84;103304.97;5114260;28;20054;-62
2022/01/25 07:11:18;;;;;;;106.20;66.43;;;7.50;99.90;;;7.67;66.66;103310.28;5114237;28;20047;-63
2022/01/25 07:13:47;;;;;;;107.40;66.35;;;7.50;99.90;;;7.70;66.62;103319.25;5113849;28;20485;-63
2022/01/25 07:16:16;;;;;;;108.55;66.50;;;7.50;99.90;;;7.76;66.31;103305.47;5114009;28;20047;-64
2022/01/25 07:18:45;;;;;;;106.20;65.63;;;7.50;99.90;;;7.71;66.20;103302.59;5113655;28;20043;-64
2022/01/25 07:21:13;;;;;;;106.82;67.30;;;7.50;99.90;;;7.73;66.56;103310.56;5113661;28;20151;-61
2022/01/25 07:23:43;;;;;;;106.97;67.13;;;7.50;99.90;;;7.73;66.68;103307.94;5113805;28;20524;-61
2022/01/25 07:26:11;;;;;;;101.37;65.13;;;7.50;99.90;;;7.79;66.06;103313.50;5113808;28;20051;-61
2022/01/25 07:28:40;;;;;;;106.45;65.32;;;7.60;99.90;;;7.82;66.27;103318.94;5113701;28;20372;-61
2022/01/25 07:31:08;;;;;;;107.20;66.90;;;7.60;99.90;;;7.73;66.18;103300.94;5113680;28;20516;-62
2022/01/25 07:33:40;;;;;;;106.55;66.40;;;7.60;99.90;;;7.72;65.95;103320.25;5113786;28;20038;-62
2022/01/25 07:36:12;;;;;;;104.18;65.13;;;7.60;99.90;;;7.49;66.16;103322.63;5095601;28;20063;-62
2022/01/25 07:38:47;;;;;;;102.45;64.13;;;7.40;99.90;;;7.27;66.53;103321.59;5113618;28;20488;-61
2022/01/25 07:41:21;;;;;;;106.47;65.78;;;7.30;99.90;;;7.16;67.86;103311.38;5114145;28;20043;-61
2022/01/25 07:43:49;;;;;;;106.85;66.32;;;7.00;99.90;;;7.27;67.50;103312.78;5113550;28;20059;-61
2022/01/25 07:46:24;;;;;;;105.55;62.28;;;7.10;99.90;;;6.93;66.78;103314.59;5113595;28;20489;-61
2022/01/25 07:48:53;;;;;;;108.47;64.90;;;7.00;99.90;;;6.21;68.83;103315.28;5113516;28;20098;-61
2022/01/25 07:51:21;;;;;;;108.38;63.47;;;6.20;99.90;;;5.84;70.18;103316.78;5113596;28;20038;-61
2022/01/25 07:53:51;;;;;;;106.07;64.57;;;5.80;99.90;;;6.08;70.38;103310.19;5113777;28;20085;-60
2022/01/25 07:56:20;;;;;;;103.50;63.67;;;5.80;99.90;;;6.07;69.50;103234.84;5113735;28;20089;-61
2022/01/25 07:58:49;;;;;;;108.93;63.35;;;6.10;99.90;;;6.42;68.96;103278.69;5113284;28;20051;-60
2022/01/25 08:01:17;;;;;;;108.88;65.75;;;6.30;99.90;;;6.79;68.99;103307.75;5112975;28;20047;-61
2022/01/25 08:03:46;;;;;;;112.40;66.18;;;6.50;99.90;;;6.86;68.44;103316.03;5112835;28;20131;-60
2022/01/25 08:06:21;;;;;;;106.57;66.10;;;6.60;99.90;;;7.07;68.39;103318.81;5113064;28;20044;-61
2022/01/25 08:08:53;;;;;;;105.87;65.03;;;6.80;99.90;;;7.17;67.91;103314.06;5113008;28;20054;-62
2022/01/25 08:11:42;;;;;;;109.00;65.95;;;6.90;99.90;;;7.27;67.50;103307.53;5105829;28;20400;-63
2022/01/25 08:14:16;;;;;;;113.07;66.97;;;7.10;99.90;;;7.33;67.64;103315.72;5112756;28;20051;-60
2022/01/25 08:16:58;;;;;;;110.22;66.18;;;7.10;99.90;;;7.30;67.52;103310.28;5112198;28;20075;-62
2022/01/25 08:19:32;;;;;;;100.57;63.75;;;7.10;99.90;;;7.24;66.75;103294.19;5111977;28;20477;-64
2022/01/25 08:22:01;;;;;;;98.78;61.90;;;7.20;99.90;;;7.29;66.58;103308.50;5112267;28;20052;-63
2022/01/25 08:24:36;;;;;;;98.72;61.00;;;7.20;99.90;;;7.11;66.69;103303.25;5094496;28;20079;-63
2022/01/25 08:27:05;;;;;;;106.32;66.60;;;7.10;99.90;;;6.82;67.21;103298.28;5112519;28;20407;-63
2022/01/25 08:29:34;;;;;;;101.95;61.80;;;6.90;99.90;;;6.95;67.33;103299.81;5111934;28;20051;-62
2022/01/25 08:32:05;;;;;;;98.82;62.78;;;6.90;99.90;;;6.21;67.34;103183.00;5112504;28;20039;-61
2022/01/25 08:34:42;;;;;;;101.20;63.67;;;6.80;99.90;;;6.87;67.85;103290.63;5112940;28;20047;-62
2022/01/25 08:37:14;;;;;;;107.82;64.35;;;6.70;99.90;;;6.73;67.55;103287.31;5112359;28;20047;-61
2022/01/25 08:40:04;;;;;;;101.57;63.77;;;6.70;99.90;;;6.43;68.65;103284.88;5111617;28;20106;-62
2022/01/25 08:42:33;;;;;;;101.00;62.70;;;6.40;99.90;;;6.41;69.57;103292.66;5112098;28;20042;-61
2022/01/25 08:45:10;;;;;;;105.60;65.23;;;6.20;99.90;;;6.67;69.05;103300.16;5112188;28;20349;-62
2022/01/25 08:47:42;;;;;;;104.80;61.77;;;6.40;99.90;;;6.85;68.64;103294.91;5094129;28;20054;-62
2022/01/25 08:50:27;;;;;;;105.28;63.83;;;6.60;99.90;;;6.99;67.85;103304.34;5112302;28;20055;-61
2022/01/25 08:53:00;;;;;;;104.30;62.97;;;6.80;99.90;;;6.89;67.63;103299.50;5094014;28;20081;-61
2022/01/25 08:55:33;;;;;;;102.78;63.60;;;6.80;99.90;;;7.03;67.60;103308.94;5112066;28;20400;-63
2022/01/25 08:58:06;;;;;;;110.93;67.85;;;6.80;99.90;;;7.20;67.88;103305.44;5107397;28;20132;-62
2022/01/25 09:00:36;;;;;;;100.25;63.58;;;7.00;99.90;;;7.04;66.93;103287.09;5112102;28;20146;-61
2022/01/25 09:03:05;;;;;;;101.80;63.30;;;7.00;99.90;;;7.16;66.81;103307.00;5112035;28;20047;-63
2022/01/25 09:05:34;;;;;;;99.60;62.25;;;7.00;99.90;;;7.19;66.53;103304.53;5111888;28;20481;-63
2022/01/25 09:08:05;;;;;;;103.82;64.65;;;7.00;99.90;;;7.32;66.43;103317.44;5112494;28;20146;-63
2022/01/25 09:10:35;;;;;;;100.55;63.70;;;7.10;99.90;;;7.17;66.71;103310.53;5111931;28;20054;-63
2022/01/25 09:13:04;;;;;;;104.35;66.13;;;7.00;99.90;;;7.19;66.91;103306.25;5093853;28;20463;-63
2022/01/25 09:15:33;;;;;;;103.00;63.80;;;7.10;99.90;;;7.38;67.23;103318.53;5111735;28;20040;-63
2022/01/25 09:18:01;;;;;;;107.80;67.30;;;7.20;99.90;;;7.41;67.03;103324.88;5111738;28;20312;-63
2022/01/25 09:20:30;;;;;;;105.68;66.47;;;7.20;99.90;;;7.46;66.88;103320.72;5111682;28;20052;-63
2022/01/25 09:22:58;;;;;;;107.28;66.32;;;7.20;99.90;;;7.54;66.65;103326.34;5093617;28;20159;-63
2022/01/25 09:25:30;;;;;;;105.82;63.08;;;7.30;99.90;;;7.28;66.41;103322.47;5111750;28;20043;-63
2022/01/25 09:28:01;;;;;;;105.70;67.30;;;7.30;99.90;;;6.69;68.56;103316.91;5111748;28;20039;-63
2022/01/25 09:30:30;;;;;;;106.20;64.27;;;6.60;99.90;;;6.46;69.31;103314.84;5112070;28;20097;-63
2022/01/25 09:32:59;;;;;;;106.97;64.72;;;6.50;99.90;;;6.10;69.83;103294.50;5111851;28;20100;-63
2022/01/25 09:35:27;;;;;;;110.20;65.40;;;6.20;99.90;;;6.14;70.12;103297.38;5111617;28;20054;-63
2022/01/25 09:37:56;;;;;;;114.87;66.10;;;6.10;99.90;;;6.22;70.13;103319.72;5111688;28;20442;-63
2022/01/25 09:40:25;;;;;;;108.83;65.03;;;6.10;99.90;;;6.10;70.60;103321.69;5112273;28;20035;-63
2022/01/25 09:42:56;;;;;;;109.83;65.43;;;6.00;99.90;;;5.77;70.93;103298.84;5115590;28;20071;-63
2022/01/25 09:45:27;;;;;;;109.00;65.03;;;5.80;99.90;;;5.64;71.36;103326.97;5116055;28;20051;-62
2022/01/25 09:47:56;;;;;;;109.93;67.20;;;5.60;99.90;;;5.76;71.94;103339.06;5116051;28;20043;-63
2022/01/25 09:50:24;;;;;;;106.73;63.07;;;5.60;99.90;;;5.94;72.57;103337.44;5115507;28;20086;-63
2022/01/25 09:52:53;;;;;;;116.37;67.83;;;5.70;99.90;;;6.06;71.69;103310.94;5115453;28;20077;-62
2022/01/25 09:55:27;;;;;;;113.27;65.67;;;6.00;99.90;;;5.82;71.86;103306.97;5115584;28;20051;-63
2022/01/25 09:57:55;;;;;;;112.57;67.03;;;5.80;99.90;;;6.08;72.22;103335.56;5115387;28;20043;-63
2022/01/25 10:00:29;;;;;;;113.90;68.37;;;5.90;99.90;;;6.09;70.88;103314.66;5115636;28;20055;-63
2022/01/25 10:03:06;;;;;;;109.60;65.77;;;6.00;99.90;;;6.26;70.60;103341.81;5115231;28;20043;-63
2022/01/25 10:05:38;;;;;;;110.67;65.03;;;6.10;99.90;;;6.06;70.55;103346.00;5115460;28;20074;-63
2022/01/25 10:08:10;;;;;;;116.03;68.73;;;6.00;99.90;;;5.87;71.25;103348.47;5115216;28;20138;-63
2022/01/25 10:10:42;;;;;;;111.73;66.73;;;5.90;99.90;;;5.74;71.98;103353.84;5115365;28;20067;-62
2022/01/25 10:13:16;;;;;;;112.33;64.97;;;5.70;99.90;;;6.03;71.98;103360.69;5096569;28;20048;-63
2022/01/25 10:15:47;;;;;;;117.47;67.70;;;5.80;99.90;;;6.08;71.31;103361.84;5115230;28;20379;-63
2022/01/25 10:18:22;;;;;;;108.10;64.40;;;5.90;99.90;;;5.88;71.91;103358.16;5115000;28;20515;-63
2022/01/25 10:20:52;;;;;;;116.23;69.47;;;5.80;99.90;;;6.25;70.98;103363.66;5114627;28;20048;-63
2022/01/25 10:23:30;;;;;;;110.95;65.53;;;6.00;99.90;;;6.37;70.63;103364.28;5114877;28;20086;-63
2022/01/25 10:26:04;;;;;;;112.60;67.67;;;6.20;99.90;;;6.16;70.67;103364.06;5115087;28;20047;-62
2022/01/25 10:28:33;;;;;;;112.00;65.00;;;6.10;99.90;;;6.36;70.57;103360.78;5115384;28;20078;-62
2022/01/25 10:31:06;;;;;;;113.60;66.77;;;6.20;99.90;;;6.52;70.25;103361.56;5114716;28;20048;-62
2022/01/25 10:33:39;;;;;;;111.27;65.40;;;6.40;99.90;;;6.38;70.22;103366.13;5114675;28;20443;-62
2022/01/25 10:36:28;;;;;;;114.87;66.87;;;6.30;99.90;;;6.29;70.57;103363.88;5114841;28;20048;-62
2022/01/25 10:38:57;;;;;;;109.17;63.97;;;6.20;99.90;;;6.62;70.33;103366.50;5114807;28;20110;-62
2022/01/25 10:41:28;;;;;;;113.00;67.73;;;6.40;99.90;;;6.58;69.70;103368.03;5114485;28;20047;-62
2022/01/25 10:43:58;;;;;;;109.18;64.45;;;6.40;99.90;;;6.42;69.62;103362.81;5096339;28;20054;-62
2022/01/25 10:46:30;;;;;;;110.82;66.43;;;6.30;99.90;;;6.50;70.19;103369.38;5114525;28;20050;-62
2022/01/25 10:49:04;;;;;;;117.07;67.00;;;6.20;99.90;;;6.27;70.47;103364.66;5114957;28;20115;-62
2022/01/25 10:51:37;;;;;;;111.25;67.38;;;6.20;99.90;;;6.14;70.84;103365.72;5113997;28;20046;-62
2022/01/25 10:54:11;;;;;;;115.70;68.43;;;6.00;99.90;;;6.34;71.48;103367.69;5114394;28;20477;-62
2022/01/25 10:56:45;;;;;;;111.63;66.70;;;6.10;99.90;;;6.08;70.94;103370.63;5114625;28;20043;-63
2022/01/25 10:59:18;;;;;;;110.50;67.03;;;5.90;99.90;;;6.01;71.35;103368.50;5114693;28;20104;-62
2022/01/25 11:01:52;;;;;;;111.30;65.43;;;5.90;99.90;;;6.29;70.89;103371.78;5114486;28;20040;-62
2022/01/25 11:04:24;;;;;;;119.03;69.40;;;5.90;99.90;;;6.44;70.16;103365.53;5114472;28;20044;-63
2022/01/25 11:07:01;;;;;;;117.07;67.60;;;6.10;99.90;;;6.37;70.20;103367.81;5114194;28;20144;-63
2022/01/25 11:09:36;;;;;;;119.30;69.00;;;6.10;99.90;;;6.44;70.98;103369.06;5114179;28;20075;-63
2022/01/25 11:12:09;;;;;;;115.82;65.35;;;6.20;99.90;;;6.39;71.38;103357.38;5095904;28;20043;-62
2022/01/25 11:17:24;;;;;;;115.38;64.70;;;6.40;99.90;;;5.83;69.73;103235.25;5111595;28;20150;-62
2022/01/25 11:19:54;;;;;;;114.63;65.45;;;6.40;99.90;;;6.39;69.74;103281.16;5114067;28;20342;-62
2022/01/25 11:22:23;;;;;;;113.87;68.50;;;6.60;99.90;;;6.74;69.74;103357.47;5113851;28;20414;-62
2022/01/25 11:24:55;;;;;;;123.40;69.22;;;6.60;99.90;;;6.49;69.60;103364.03;5113673;28;20469;-62
2022/01/25 11:27:28;;;;;;;117.43;67.73;;;6.50;99.90;;;6.84;69.27;103364.13;5114286;28;20040;-62
2022/01/25 11:30:00;;;;;;;113.23;66.93;;;6.70;99.90;;;7.02;69.37;103365.97;5113692;28;20093;-62
2022/01/25 11:32:35;;;;;;;120.70;68.07;;;6.80;99.90;;;6.85;69.14;103373.81;5113864;28;20054;-62
2022/01/25 11:35:09;;;;;;;113.95;69.60;;;6.70;99.90;;;7.18;68.95;103363.25;5113572;28;20070;-62
2022/01/25 11:37:40;;;;;;;111.85;65.65;;;7.00;99.90;;;6.75;68.57;103322.47;5095163;28;20451;-62
2022/01/25 11:40:26;;;;;;;113.18;67.10;;;7.10;99.90;;;7.42;67.88;103358.28;5113287;28;20060;-62
2022/01/25 11:43:00;;;;;;;113.35;66.97;;;7.20;99.90;;;7.52;67.94;103350.00;5112857;28;20059;-63